Time;durP1;ratioP1;P1;durP2;ratioP2;P2;SDS_P1;SDS_P2;PMS_P1;PMS_P2;Temp;Humidity;BMP_temperature;BMP_pressure;BME280_temperature;BME280_humidity;BME280_pressure;Samples;Min_cycle;Max_cycle;Signal;HPM_P1;HPM_P2
2023/06/15 00:12:39;;;;;;;6.47;5.57;;;10.90;99.90;;;;;;21069094;28;20085;-48
2023/06/15 00:22:45;;;;;;;10.00;5.80;;;10.70;99.90;;;;;;21071498;28;20043;-50
2023/06/15 00:32:47;;;;;;;9.50;7.10;;;10.50;99.90;;;;;;21070677;28;20032;-48
2023/06/15 00:42:48;;;;;;;9.43;7.28;;;10.40;99.90;;;;;;21046169;28;20097;-54
2023/06/15 00:52:52;;;;;;;9.77;7.10;;;10.50;99.90;;;;;;21069424;28;20028;-47
2023/06/15 01:02:56;;;;;;;8.60;6.78;;;10.50;99.90;;;;;;21068329;28;20024;-49
2023/06/15 01:13:00;;;;;;;7.53;6.28;;;10.50;99.90;;;;;;21066777;28;20035;-51
2023/06/15 01:23:22;;;;;;;8.40;7.20;;;10.60;99.90;;;;;;21067246;28;20032;-49
2023/06/15 01:33:24;;;;;;;7.43;6.38;;;10.60;99.90;;;;;;21065273;28;20369;-46
2023/06/15 01:43:30;;;;;;;7.88;6.20;;;10.60;99.90;;;;;;21077504;28;20049;-47
2023/06/15 01:53:32;;;;;;;14.07;11.25;;;10.60;99.90;;;;;;21071765;28;20082;-49
2023/06/15 02:03:34;;;;;;;20.75;13.80;;;10.70;99.90;;;;;;21082687;28;20036;-48
2023/06/15 02:13:39;;;;;;;17.77;14.20;;;10.90;99.90;;;;;;21063499;28;20032;-43
2023/06/15 02:23:41;;;;;;;18.02;14.48;;;10.90;99.90;;;;;;21063234;28;20089;-47
2023/06/15 02:33:44;;;;;;;21.38;15.77;;;11.00;99.90;;;;;;21095591;28;20036;-47
2023/06/15 02:43:47;;;;;;;19.50;14.23;;;10.90;99.90;;;;;;21060968;28;20504;-52
2023/06/15 02:53:49;;;;;;;10.85;9.05;;;10.80;99.90;;;;;;21060903;28;20031;-49
2023/06/15 03:03:52;;;;;;;16.33;11.38;;;10.70;99.90;;;;;;21058376;28;20036;-49
2023/06/15 03:13:55;;;;;;;15.93;12.40;;;10.60;99.90;;;;;;21059016;28;20111;-47
2023/06/15 03:23:58;;;;;;;15.75;11.68;;;10.50;99.90;;;;;;21058537;28;20036;-49
2023/06/15 03:34:00;;;;;;;14.52;10.75;;;10.30;99.90;;;;;;21057195;28;20097;-49
2023/06/15 03:44:03;;;;;;;15.75;11.68;;;9.90;99.90;;;;;;21074673;28;20040;-44
2023/06/15 03:54:06;;;;;;;17.75;12.80;;;9.80;99.90;;;;;;21055651;28;20389;-45
2023/06/15 04:04:08;;;;;;;21.98;15.43;;;9.80;99.90;;;;;;21053268;28;20032;-48
2023/06/15 04:14:11;;;;;;;22.52;15.65;;;9.80;99.90;;;;;;21065805;28;20089;-43
2023/06/15 04:24:14;;;;;;;15.77;11.85;;;10.00;99.90;;;;;;21051162;28;20036;-43
2023/06/15 04:34:16;;;;;;;18.00;12.75;;;10.10;99.90;;;;;;21050023;28;20509;-44
2023/06/15 04:44:18;;;;;;;17.80;13.10;;;10.20;99.90;;;;;;21047612;28;20039;-44
2023/06/15 04:54:21;;;;;;;16.15;11.95;;;10.20;99.90;;;;;;21067274;28;20442;-44
2023/06/15 05:04:22;;;;;;;16.05;11.23;;;10.40;99.90;;;;;;21047549;28;20020;-48
2023/06/15 05:14:26;;;;;;;15.93;11.80;;;10.50;99.90;;;;;;21047463;28;20032;-47
2023/06/15 05:24:29;;;;;;;15.52;11.30;;;10.60;99.90;;;;;;21046844;28;20031;-44
2023/06/15 05:34:30;;;;;;;16.80;11.70;;;10.70;99.90;;;;;;21063920;28;20043;-43
2023/06/15 05:44:32;;;;;;;13.10;10.23;;;10.80;99.90;;;;;;21045387;28;20101;-48
2023/06/15 05:54:35;;;;;;;12.75;9.20;;;11.10;99.90;;;;;;21045383;28;20481;-45
2023/06/15 06:04:37;;;;;;;7.63;6.20;;;11.40;99.90;;;;;;21044451;28;20106;-43
2023/06/15 06:14:39;;;;;;;5.15;4.30;;;11.90;99.90;;;;;;21041737;28;20028;-48
2023/06/15 06:24:41;;;;;;;5.13;2.70;;;15.50;99.90;;;;;;21044283;28;20032;-45
2023/06/15 06:34:44;;;;;;;2.70;2.08;;;18.80;99.90;;;;;;21041005;28;20489;-53
2023/06/15 06:44:45;;;;;;;2.63;2.22;;;21.10;99.90;;;;;;21075033;28;20058;-54
2023/06/15 06:54:47;;;;;;;2.35;2.15;;;23.50;99.90;;;;;;21076740;28;20039;-55
2023/06/15 07:04:48;;;;;;;3.17;1.50;;;25.40;99.60;;;;;;21075785;28;20028;-46
2023/06/15 07:14:50;;;;;;;2.30;2.10;;;26.10;98.10;;;;;;21056701;28;20032;-57
2023/06/15 07:24:52;;;;;;;1.95;1.70;;;27.50;95.00;;;;;;21074436;28;20035;-57
2023/06/15 07:34:54;;;;;;;2.78;1.77;;;27.30;93.30;;;;;;21071153;28;20036;-56
2023/06/15 07:44:55;;;;;;;1.48;1.30;;;26.10;94.80;;;;;;21072378;28;20397;-56
2023/06/15 07:54:57;;;;;;;2.38;1.85;;;26.20;95.10;;;;;;21071519;28;20032;-45
2023/06/15 08:04:59;;;;;;;2.13;1.60;;;26.00;95.00;;;;;;21069698;28;20040;-56
2023/06/15 08:15:00;;;;;;;2.28;1.50;;;25.80;94.70;;;;;;21069773;28;20424;-54
2023/06/15 08:25:03;;;;;;;2.15;1.58;;;24.30;95.10;;;;;;21069791;28;20028;-55
2023/06/15 08:35:06;;;;;;;2.42;2.00;;;22.00;97.20;;;;;;21067656;28;20513;-50
2023/06/15 08:45:08;;;;;;;2.45;2.25;;;20.60;97.60;;;;;;21067423;28;20062;-46
2023/06/15 08:55:10;;;;;;;2.63;2.25;;;19.80;99.90;;;;;;21063750;28;20036;-53
2023/06/15 09:05:12;;;;;;;3.67;2.53;;;21.00;99.90;;;;;;21062570;28;20032;-49
2023/06/15 09:15:25;;;;;;;2.75;2.50;;;21.40;99.90;;;;;;21065493;28;20089;-55
2023/06/15 09:25:31;;;;;;;3.20;2.90;;;22.50;99.90;;;;;;21064806;28;20036;-53
2023/06/15 09:35:33;;;;;;;3.67;3.17;;;21.90;99.90;;;;;;21043643;28;20068;-51
2023/06/15 09:45:35;;;;;;;4.50;3.30;;;21.80;99.90;;;;;;21045504;28;20047;-56
2023/06/15 09:55:37;;;;;;;4.15;3.25;;;22.60;99.90;;;;;;21062929;28;20077;-54
2023/06/15 10:05:45;;;;;;;2.90;2.70;;;23.90;99.90;;;;;;21042597;28;20032;-54
2023/06/15 10:15:52;;;;;;;4.15;3.50;;;24.80;98.40;;;;;;21067048;28;20036;-55
2023/06/15 10:25:55;;;;;;;5.13;3.93;;;24.50;97.50;;;;;;21078505;28;20393;-54
2023/06/15 10:36:05;;;;;;;4.32;3.83;;;22.70;99.60;;;;;;21078003;28;20447;-52
2023/06/15 10:46:28;;;;;;;6.60;5.90;;;21.60;99.60;;;;;;21074383;28;20093;-51
2023/06/15 10:56:31;;;;;;;8.05;7.25;;;21.00;99.90;;;;;;21074098;28;20028;-50
2023/06/15 11:06:35;;;;;;;6.93;6.22;;;19.80;99.90;;;;;;21091156;28;20062;-52
2023/06/15 11:16:38;;;;;;;11.70;8.93;;;19.20;99.90;;;;;;21074607;28;20062;-50
2023/06/15 11:26:43;;;;;;;11.73;8.77;;;19.30;99.90;;;;;;21073021;28;20537;-46
2023/06/15 11:36:45;;;;;;;10.50;7.50;;;19.70;99.90;;;;;;21073147;28;20047;-55
2023/06/15 11:46:55;;;;;;;7.72;6.70;;;20.90;99.90;;;;;;21069984;28;20330;-52
2023/06/15 11:57:00;;;;;;;7.18;6.15;;;21.50;99.90;;;;;;21071659;28;20043;-56
2023/06/15 12:07:04;;;;;;;6.95;6.32;;;24.40;99.90;;;;;;21070627;28;20062;-56
2023/06/15 12:17:06;;;;;;;6.85;6.25;;;24.30;99.90;;;;;;21069905;28;20044;-52
2023/06/15 12:27:15;;;;;;;8.70;7.30;;;22.20;99.90;;;;;;21050638;28;20180;-53
2023/06/15 12:37:17;;;;;;;10.75;9.73;;;20.80;99.90;;;;;;21068372;28;20110;-45
2023/06/15 12:47:19;;;;;;;8.57;7.70;;;20.50;99.90;;;;;;21067725;28;20489;-49
2023/06/15 12:57:20;;;;;;;8.82;7.93;;;20.40;99.90;;;;;;21066668;28;20024;-51
2023/06/15 13:07:24;;;;;;;8.10;5.85;;;20.20;99.90;;;;;;21048502;28;20028;-51
2023/06/15 13:17:25;;;;;;;8.10;7.30;;;21.70;99.90;;;;;;21064449;28;20497;-53
2023/06/15 13:27:27;;;;;;;9.80;8.80;;;21.40;99.90;;;;;;21065692;28;20535;-50
2023/06/15 13:37:29;;;;;;;11.43;8.82;;;20.60;99.90;;;;;;21064482;28;20093;-53
2023/06/15 13:47:31;;;;;;;9.55;8.65;;;19.60;99.90;;;;;;21062996;28;20032;-53
2023/06/15 13:57:34;;;;;;;10.30;9.23;;;19.30;99.90;;;;;;21063593;28;20374;-52
2023/06/15 14:07:38;;;;;;;11.18;10.13;;;18.70;99.90;;;;;;21061065;28;20051;-50
2023/06/15 14:17:40;;;;;;;9.65;8.10;;;18.70;99.90;;;;;;21062262;28;20028;-51
2023/06/15 14:27:47;;;;;;;11.63;9.15;;;19.00;99.90;;;;;;21062140;28;20474;-54
2023/06/15 14:37:51;;;;;;;10.43;8.95;;;18.30;99.90;;;;;;21061816;28;20101;-48
2023/06/15 14:47:52;;;;;;;11.90;8.70;;;17.60;99.90;;;;;;21061329;28;20024;-49
2023/06/15 14:57:54;;;;;;;9.90;8.88;;;17.50;99.90;;;;;;21060201;28;20039;-51
2023/06/15 15:07:55;;;;;;;12.48;8.35;;;17.40;99.90;;;;;;21074684;28;20386;-45
2023/06/15 15:17:57;;;;;;;6.38;5.00;;;18.00;99.90;;;;;;21075336;28;20036;-52
2023/06/15 15:27:59;;;;;;;4.55;4.03;;;19.00;99.90;;;;;;21073919;28;20481;-52
2023/06/15 15:38:00;;;;;;;4.75;3.90;;;19.30;99.90;;;;;;21073136;28;20073;-48
2023/06/15 15:48:02;;;;;;;4.07;3.67;;;18.90;99.90;;;;;;21068036;28;20477;-54
2023/06/15 15:58:04;;;;;;;5.38;4.18;;;18.50;99.90;;;;;;21068121;28;20121;-52
2023/06/15 16:08:06;;;;;;;6.03;4.50;;;18.50;99.90;;;;;;21053753;28;20653;-47
2023/06/15 16:18:08;;;;;;;7.47;5.22;;;18.50;99.90;;;;;;21069785;28;20395;-52
2023/06/15 16:28:09;;;;;;;5.35;4.85;;;18.50;99.90;;;;;;21069115;28;20384;-52
2023/06/15 16:38:11;;;;;;;4.22;3.58;;;18.30;99.90;;;;;;21065351;28;20052;-50
2023/06/15 16:48:13;;;;;;;4.80;3.92;;;17.90;99.80;;;;;;21067293;28;20424;-50
2023/06/15 16:58:14;;;;;;;8.02;6.00;;;17.30;99.90;;;;;;21066949;28;20047;-49
2023/06/15 17:08:17;;;;;;;9.15;5.10;;;16.30;99.90;;;;;;21066347;28;20040;-49
2023/06/15 17:18:18;;;;;;;8.90;5.70;;;15.70;99.90;;;;;;21065613;28;20039;-50
2023/06/15 17:28:20;;;;;;;7.70;5.85;;;15.40;99.90;;;;;;21064961;28;20025;-48
2023/06/15 17:38:21;;;;;;;8.88;7.55;;;14.90;99.90;;;;;;21062514;28;20505;-48
2023/06/15 17:48:23;;;;;;;12.38;9.13;;;14.40;99.90;;;;;;21045261;28;20036;-49
2023/06/15 17:58:25;;;;;;;12.55;9.43;;;13.70;99.90;;;;;;21063213;28;20044;-50
2023/06/15 18:08:27;;;;;;;13.60;9.57;;;13.20;99.90;;;;;;21063381;28;20040;-48
2023/06/15 18:18:29;;;;;;;9.35;8.35;;;12.90;99.90;;;;;;21062791;28;20431;-54
2023/06/15 18:28:31;;;;;;;12.80;10.05;;;12.70;99.90;;;;;;21058169;28;20566;-49
2023/06/15 18:38:34;;;;;;;15.45;11.57;;;12.50;99.90;;;;;;21071746;28;20416;-49
2023/06/15 18:48:36;;;;;;;14.30;10.63;;;12.20;99.90;;;;;;21074948;28;20088;-46
2023/06/15 18:58:39;;;;;;;12.88;11.10;;;11.90;99.90;;;;;;21058327;28;20031;-47
2023/06/15 19:08:41;;;;;;;15.30;10.52;;;11.70;99.90;;;;;;21058154;28;20036;-47
2023/06/15 19:18:42;;;;;;;13.20;10.32;;;11.50;99.90;;;;;;21074940;28;20362;-48
2023/06/15 19:28:44;;;;;;;12.95;10.38;;;11.30;99.90;;;;;;21074209;28;20020;-47
2023/06/15 19:38:49;;;;;;;12.60;11.18;;;11.20;99.90;;;;;;21071275;28;20093;-48
2023/06/15 19:48:52;;;;;;;13.95;10.40;;;11.20;99.90;;;;;;21071671;28;20054;-47
2023/06/15 19:58:54;;;;;;;13.80;10.93;;;11.10;99.90;;;;;;21071838;28;20028;-47
2023/06/15 20:08:56;;;;;;;15.98;11.77;;;11.20;99.90;;;;;;21071181;28;20081;-47
2023/06/15 20:18:58;;;;;;;16.08;11.98;;;11.20;99.90;;;;;;21066410;28;20073;-46
2023/06/15 20:29:00;;;;;;;20.83;14.15;;;11.20;99.90;;;;;;21069038;28;20463;-49
2023/06/15 20:39:03;;;;;;;21.40;16.27;;;11.50;99.90;;;;;;21064766;28;20074;-46
2023/06/15 20:49:05;;;;;;;21.67;15.32;;;11.50;99.90;;;;;;21067659;28;20493;-48
2023/06/15 20:59:06;;;;;;;21.25;15.55;;;11.60;99.90;;;;;;21063185;28;20036;-47
2023/06/15 21:09:08;;;;;;;17.98;14.38;;;11.80;99.90;;;;;;21066510;28;20546;-49
2023/06/15 21:19:12;;;;;;;22.40;15.82;;;12.10;99.90;;;;;;21063155;28;20090;-49
2023/06/15 21:29:14;;;;;;;22.58;15.55;;;12.30;99.90;;;;;;21065783;28;20366;-47
2023/06/15 21:39:16;;;;;;;19.23;15.70;;;12.50;99.90;;;;;;21046170;28;20056;-47
2023/06/15 21:49:17;;;;;;;21.05;16.38;;;12.40;99.90;;;;;;21063574;28;20043;-50
2023/06/15 21:59:20;;;;;;;22.40;16.17;;;12.30;99.90;;;;;;21063552;28;20048;-50
2023/06/15 22:09:22;;;;;;;26.83;18.20;;;12.30;99.90;;;;;;21066988;28;20032;-47
2023/06/15 22:19:25;;;;;;;24.52;18.92;;;12.60;99.90;;;;;;21079718;28;20492;-48
2023/06/15 22:29:26;;;;;;;23.48;19.60;;;12.60;99.90;;;;;;21078677;28;20086;-48
2023/06/15 22:39:28;;;;;;;6.13;3.80;;;12.40;99.90;;;;;;21078226;28;20093;-50
2023/06/15 22:49:29;;;;;;;3.63;2.35;;;11.90;99.90;;;;;;21077142;28;20035;-48
2023/06/15 22:59:31;;;;;;;5.03;3.90;;;11.30;99.90;;;;;;21076555;28;20044;-45
2023/06/15 23:09:36;;;;;;;5.40;4.50;;;10.70;99.90;;;;;;21075965;28;20032;-47
2023/06/15 23:19:40;;;;;;;4.65;4.00;;;10.30;99.90;;;;;;21073550;28;20440;-49
2023/06/15 23:29:44;;;;;;;5.75;3.80;;;10.10;99.90;;;;;;21055832;28;20056;-50
2023/06/15 23:39:45;;;;;;;5.00;3.78;;;10.30;99.90;;;;;;21073142;28;20065;-48
2023/06/15 23:49:47;;;;;;;10.70;4.60;;;10.10;99.90;;;;;;21071445;28;20028;-41
2023/06/15 23:59:48;;;;;;;6.45;5.63;;;10.10;99.90;;;;;;21071618;28;20036;-48
